Time;durP1;ratioP1;P1;durP2;ratioP2;P2;SDS_P1;SDS_P2;PMS_P1;PMS_P2;Temp;Humidity;BMP_temperature;BMP_pressure;BME280_temperature;BME280_humidity;BME280_pressure;Samples;Min_cycle;Max_cycle;Signal;HPM_P1;HPM_P2
2023/03/28 00:00:12;;;;;;;5.40;3.50;;;;;;;-0.83;70.18;100116.29;130248;1259;114735;-68
2023/03/28 00:03:38;;;;;;;9.20;2.90;;;;;;;-0.83;70.53;100108.73;130208;1259;115150;-68
2023/03/28 00:06:44;;;;;;;7.30;3.60;;;;;;;-0.81;70.61;100103.99;130280;1254;114718;-68
2023/03/28 00:09:50;;;;;;;3.20;2.80;;;;;;;-0.80;70.53;100103.81;130235;1259;115138;-68
2023/03/28 00:12:52;;;;;;;4.20;2.60;;;;;;;-0.80;70.75;100102.23;130067;1255;128050;-68
2023/03/28 00:15:54;;;;;;;6.70;3.20;;;;;;;-0.79;70.76;100098.72;130156;1255;115158;-68
2023/03/28 00:19:01;;;;;;;6.10;3.00;;;;;;;-0.80;70.87;100092.58;130297;1254;115230;-68
2023/03/28 00:22:03;;;;;;;5.80;3.40;;;;;;;-0.79;70.87;100094.52;129975;1254;114917;-68
2023/03/28 00:25:07;;;;;;;3.80;2.80;;;;;;;-0.79;70.41;100093.45;130168;1255;115410;-68
2023/03/28 00:28:09;;;;;;;6.40;3.00;;;;;;;-0.79;70.67;100084.52;130310;1259;114714;-68
2023/03/28 00:31:12;;;;;;;7.40;3.70;;;;;;;-0.78;70.89;100085.39;130251;1259;114819;-68
2023/03/28 00:34:15;;;;;;;7.70;3.20;;;;;;;-0.77;70.77;100083.28;130257;1254;114728;-68
2023/03/28 00:37:17;;;;;;;7.50;3.40;;;;;;;-0.75;71.06;100083.27;130179;1254;115364;-68
2023/03/28 00:40:19;;;;;;;6.90;3.80;;;;;;;-0.75;70.90;100088.00;129885;1259;114830;-68
2023/03/28 00:43:39;;;;;;;6.20;3.10;;;;;;;-0.73;70.89;100088.68;130147;1254;115279;-68
2023/03/28 00:46:41;;;;;;;5.80;2.90;;;;;;;-0.74;71.38;100092.02;130254;1276;114734;-68
2023/03/28 00:49:45;;;;;;;6.80;3.10;;;;;;;-0.74;71.26;100085.36;130200;1254;114705;-68
2023/03/28 00:53:35;;;;;;;3.90;3.00;;;;;;;-0.74;71.33;100082.38;130237;1276;114747;-68
2023/03/28 00:56:38;;;;;;;6.70;2.90;;;;;;;-0.74;71.14;100087.45;130243;1254;114749;-69
2023/03/28 00:59:40;;;;;;;6.30;3.20;;;;;;;-0.74;71.05;100089.23;130189;1257;115179;-69
2023/03/28 01:02:49;;;;;;;6.90;3.00;;;;;;;-0.75;71.59;100089.75;130224;1257;114811;-68
2023/03/28 01:05:52;;;;;;;9.40;3.40;;;;;;;-0.75;71.59;100086.25;130308;1257;130306;-68
2023/03/28 01:08:55;;;;;;;5.20;3.20;;;;;;;-0.74;71.58;100088.52;129717;1262;115009;-68
2023/03/28 01:11:58;;;;;;;8.30;2.80;;;;;;;-0.73;71.95;100087.28;129812;1259;114799;-66
2023/03/28 01:15:01;;;;;;;6.10;3.20;;;;;;;-0.71;71.92;100084.83;129985;1258;115436;-67
2023/03/28 01:18:09;;;;;;;8.20;3.60;;;;;;;-0.70;71.94;100082.87;129941;1257;114750;-68
2023/03/28 01:21:32;;;;;;;5.60;2.60;;;;;;;-0.63;72.30;100084.23;129979;1277;127844;-67
2023/03/28 01:25:23;;;;;;;7.30;3.40;;;;;;;-0.53;72.28;100076.96;129845;1259;115253;-68
2023/03/28 01:29:05;;;;;;;5.30;3.30;;;;;;;-0.39;72.50;100067.20;129741;1266;114805;-68
2023/03/28 01:32:26;;;;;;;11.30;3.90;;;;;;;-0.27;72.60;100066.05;129752;1265;114797;-68
2023/03/28 01:35:50;;;;;;;7.60;3.90;;;;;;;-0.19;72.49;100066.52;129425;1265;114876;-68
2023/03/28 01:39:05;;;;;;;5.50;3.40;;;;;;;-0.12;72.47;100067.14;129352;1283;129056;-69
2023/03/28 01:42:20;;;;;;;8.20;4.00;;;;;;;-0.06;72.50;100066.90;129682;1260;115247;-68
2023/03/28 01:45:47;;;;;;;5.20;3.40;;;;;;;0.00;72.47;100064.55;129786;1260;114863;-68
2023/03/28 01:48:52;;;;;;;9.20;3.90;;;;;;;0.08;72.31;100063.26;129481;1283;114891;-67
2023/03/28 01:52:00;;;;;;;;;;;;;;;0.14;72.37;100064.08;129290;1265;114943;-68
2023/03/28 01:55:10;;;;;;;7.40;4.10;;;;;;;0.21;72.50;100058.89;129344;1284;130332;-69
2023/03/28 01:58:45;;;;;;;5.80;3.40;;;;;;;0.28;72.53;100058.11;129726;1265;115231;-68
2023/03/28 02:01:52;;;;;;;6.90;3.00;;;;;;;0.35;72.53;100055.58;129737;1254;115276;-68
2023/03/28 02:04:56;;;;;;;7.00;3.40;;;;;;;0.39;72.39;100056.94;129908;1257;114749;-69
2023/03/28 02:08:00;;;;;;;7.00;3.90;;;;;;;0.44;72.47;100054.07;130251;1259;114855;-68
2023/03/28 02:11:02;;;;;;;9.30;4.10;;;;;;;0.48;72.31;100049.45;129846;1254;128659;-68
2023/03/28 02:14:09;;;;;;;7.40;3.50;;;;;;;0.52;72.05;100046.77;129934;1255;114806;-69
2023/03/28 02:17:17;;;;;;;5.00;3.50;;;;;;;0.55;72.22;100047.09;129826;1263;114824;-68
2023/03/28 02:20:23;;;;;;;6.80;3.80;;;;;;;0.61;72.37;100045.95;130303;1259;115199;-68
2023/03/28 02:23:34;;;;;;;4.90;3.70;;;;;;;0.65;72.13;100045.04;129642;1263;116399;-67
2023/03/28 02:26:37;;;;;;;6.80;3.80;;;;;;;0.68;72.12;100046.04;129610;1261;128003;-68
2023/03/28 02:29:41;;;;;;;6.80;4.70;;;;;;;0.72;72.39;100045.47;130384;1259;114797;-69
2023/03/28 02:32:48;;;;;;;5.60;4.90;;;;;;;0.76;72.44;100052.96;130288;1259;114726;-68
2023/03/28 02:36:19;;;;;;;5.80;4.60;;;;;;;0.81;72.43;100053.42;130226;1257;114801;-68
2023/03/28 02:39:36;;;;;;;8.40;4.60;;;;;;;0.88;72.54;100058.96;129465;1267;115021;-68
2023/03/28 02:42:48;;;;;;;10.60;5.70;;;;;;;0.92;72.46;100059.25;129411;1267;129278;-68
2023/03/28 02:45:57;;;;;;;6.70;5.10;;;;;;;0.97;72.57;100063.40;129297;1284;115272;-68
2023/03/28 02:49:25;;;;;;;8.10;5.70;;;;;;;1.00;72.71;100061.60;129129;1267;114831;-68
2023/03/28 02:52:36;;;;;;;6.80;4.30;;;;;;;1.04;72.47;100062.06;129371;1265;115341;-68
2023/03/28 02:55:40;;;;;;;6.40;4.60;;;;;;;1.08;72.47;100063.95;129513;1262;114887;-68
2023/03/28 02:58:56;;;;;;;7.60;5.40;;;;;;;1.09;72.55;100061.98;129496;1263;128002;-68
2023/03/28 03:01:59;;;;;;;7.30;5.50;;;;;;;1.08;72.35;100063.61;129703;1262;115182;-69
2023/03/28 03:05:02;;;;;;;10.80;6.00;;;;;;;1.05;72.37;100059.95;129848;1263;114981;-67
2023/03/28 03:08:05;;;;;;;7.70;5.60;;;;;;;1.03;72.24;100055.23;129665;1265;114962;-69
2023/03/28 03:11:07;;;;;;;12.30;5.60;;;;;;;1.01;72.43;100054.90;129595;1265;114831;-68
2023/03/28 03:14:09;;;;;;;7.40;4.60;;;;;;;0.98;72.20;100061.46;129720;1265;114898;-69
2023/03/28 03:17:11;;;;;;;9.10;5.20;;;;;;;0.97;72.40;100065.34;129719;1277;127867;-69
2023/03/28 03:20:13;;;;;;;9.60;4.70;;;;;;;0.96;72.27;100065.88;130200;1259;114764;-68
2023/03/28 03:23:15;;;;;;;7.30;4.60;;;;;;;0.96;72.23;100069.40;130239;1256;114760;-68
2023/03/28 03:26:17;;;;;;;10.50;4.70;;;;;;;0.98;72.27;100072.54;129548;1264;114914;-67
2023/03/28 03:29:20;;;;;;;8.30;4.60;;;;;;;1.02;72.37;100072.48;130317;1259;114798;-69
2023/03/28 03:32:22;;;;;;;7.80;4.10;;;;;;;1.07;72.44;100073.13;130421;1259;115335;-69
2023/03/28 03:35:24;;;;;;;10.20;4.40;;;;;;;1.09;72.63;100075.19;130073;1263;114977;-69
2023/03/28 03:38:27;;;;;;;5.80;4.00;;;;;;;1.12;72.48;100075.68;130279;1259;114726;-69
2023/03/28 03:41:29;;;;;;;6.40;3.60;;;;;;;1.14;72.43;100074.96;130214;1260;114840;-69
2023/03/28 03:44:31;;;;;;;5.60;3.30;;;;;;;1.16;72.30;100075.09;130213;1259;114756;-69
2023/03/28 03:47:33;;;;;;;6.10;3.30;;;;;;;1.17;72.57;100076.14;129818;1262;114968;-69
2023/03/28 03:50:35;;;;;;;5.50;3.70;;;;;;;1.16;72.62;100069.46;129871;1277;114893;-69
2023/03/28 03:53:38;;;;;;;7.30;3.80;;;;;;;1.16;72.90;100071.59;130076;1254;114760;-69
2023/03/28 03:56:41;;;;;;;8.00;3.90;;;;;;;1.16;72.93;100073.86;129665;1262;114794;-68
2023/03/28 03:59:44;;;;;;;4.40;3.00;;;;;;;1.16;72.96;100069.30;129887;1275;115103;-69
2023/03/28 04:02:47;;;;;;;6.00;3.20;;;;;;;1.16;72.92;100072.27;129948;1276;114798;-69
2023/03/28 04:05:49;;;;;;;4.70;2.50;;;;;;;1.17;72.73;100080.00;130255;1259;114793;-69
2023/03/28 04:08:51;;;;;;;5.80;2.80;;;;;;;1.17;72.61;100087.20;130243;1259;114770;-69
2023/03/28 04:11:54;;;;;;;7.50;2.70;;;;;;;1.16;72.67;100095.33;129865;1259;114940;-69
2023/03/28 04:14:56;;;;;;;5.80;3.00;;;;;;;1.15;72.43;100103.06;130179;1254;114817;-70
2023/03/28 04:17:58;;;;;;;5.50;3.30;;;;;;;1.16;72.60;100105.88;130204;1259;114727;-68
2023/03/28 04:21:01;;;;;;;7.30;3.30;;;;;;;1.17;72.47;100112.71;129976;1260;115421;-68
2023/03/28 04:24:05;;;;;;;9.40;5.00;;;;;;;1.20;72.55;100118.67;129981;1256;115215;-69
2023/03/28 04:27:08;;;;;;;7.70;5.30;;;;;;;1.21;72.80;100122.16;129895;1270;114924;-68
2023/03/28 04:30:11;;;;;;;9.80;4.40;;;;;;;1.18;72.86;100128.00;130217;1255;114728;-68
2023/03/28 04:33:13;;;;;;;11.50;3.80;;;;;;;1.15;72.83;100131.05;129991;1259;115385;-68
2023/03/28 04:36:15;;;;;;;6.20;3.50;;;;;;;1.10;73.18;100136.02;129929;1254;114894;-68
2023/03/28 04:39:20;;;;;;;5.00;3.10;;;;;;;1.04;72.72;100144.20;129677;1261;127701;-68
2023/03/28 04:42:23;;;;;;;3.90;2.60;;;;;;;0.97;72.77;100152.20;130040;1276;116372;-68
2023/03/28 04:45:25;;;;;;;6.10;3.20;;;;;;;0.86;71.93;100154.45;130069;1257;114734;-67
2023/03/28 04:48:27;;;;;;;5.80;2.20;;;;;;;0.74;71.18;100147.73;130082;1260;115191;-68
2023/03/28 04:51:29;;;;;;;4.50;2.50;;;;;;;0.63;70.66;100150.15;129999;1278;115331;-67
2023/03/28 04:54:32;;;;;;;3.60;1.90;;;;;;;0.53;70.23;100160.45;130010;1259;114724;-67
2023/03/28 04:57:37;;;;;;;4.10;1.80;;;;;;;0.43;69.99;100173.73;130029;1259;115382;-69
2023/03/28 05:00:39;;;;;;;7.40;2.90;;;;;;;0.34;69.80;100180.32;129955;1257;115256;-69
2023/03/28 05:03:41;;;;;;;10.40;3.70;;;;;;;0.26;69.62;100187.41;130006;1257;115091;-68
2023/03/28 05:06:48;;;;;;;14.20;4.00;;;;;;;0.21;69.71;100192.38;130390;1258;115254;-68
2023/03/28 05:09:50;;;;;;;6.80;2.60;;;;;;;0.16;69.51;100192.42;130103;1259;114804;-69
2023/03/28 05:12:52;;;;;;;5.30;2.20;;;;;;;0.12;69.60;100193.33;130045;1259;114792;-68
2023/03/28 05:15:54;;;;;;;4.90;1.90;;;;;;;0.10;69.74;100198.77;129946;1263;115010;-67
2023/03/28 05:18:57;;;;;;;3.20;1.50;;;;;;;0.11;69.95;100214.93;130002;1276;128951;-68
2023/03/28 05:22:00;;;;;;;7.10;2.60;;;;;;;0.16;70.21;100222.10;129730;1257;114897;-68
2023/03/28 05:25:03;;;;;;;8.30;2.80;;;;;;;0.21;70.23;100228.73;130173;1259;114737;-68
2023/03/28 05:28:06;;;;;;;4.60;2.20;;;;;;;0.25;70.67;100234.84;130409;1258;114687;-67
2023/03/28 05:31:08;;;;;;;7.00;3.40;;;;;;;0.31;70.46;100239.72;130171;1258;115268;-67
2023/03/28 05:34:11;;;;;;;3.80;1.70;;;;;;;0.36;70.65;100236.88;130440;1254;114727;-67
2023/03/28 05:37:14;;;;;;;3.50;1.80;;;;;;;0.42;70.68;100245.59;130172;1276;114725;-68
2023/03/28 05:40:16;;;;;;;2.70;2.00;;;;;;;0.47;70.56;100250.98;130077;1276;115117;-67
2023/03/28 05:43:18;;;;;;;4.20;1.80;;;;;;;0.51;70.22;100257.98;130029;1259;114818;-67
2023/03/28 05:46:22;;;;;;;3.50;1.90;;;;;;;0.56;70.32;100262.67;129980;1259;115192;-66
2023/03/28 05:49:25;;;;;;;2.40;1.30;;;;;;;0.62;70.35;100266.50;129882;1268;114791;-65
2023/03/28 05:52:27;;;;;;;2.50;1.30;;;;;;;0.65;69.93;100266.30;129918;1257;114807;-67
2023/03/28 05:55:29;;;;;;;2.60;1.60;;;;;;;0.69;69.97;100276.44;129608;1276;128291;-66
2023/03/28 05:58:32;;;;;;;3.50;1.80;;;;;;;0.76;69.63;100278.14;129840;1259;115253;-66
2023/03/28 06:01:35;;;;;;;2.70;1.60;;;;;;;0.85;69.56;100285.09;130013;1257;114740;-67
2023/03/28 06:04:38;;;;;;;2.80;1.50;;;;;;;0.94;69.78;100290.63;130327;1259;114706;-67
2023/03/28 06:07:40;;;;;;;3.80;2.00;;;;;;;1.03;69.09;100295.46;129899;1277;114767;-67
2023/03/28 06:10:43;;;;;;;2.60;1.60;;;;;;;1.11;69.38;100296.25;129605;1262;114945;-66
2023/03/28 06:13:45;;;;;;;5.00;1.90;;;;;;;1.18;69.26;100303.73;129913;1259;114805;-67
2023/03/28 06:16:47;;;;;;;6.50;3.60;;;;;;;1.20;68.88;100307.05;129992;1259;114763;-67
2023/03/28 06:19:50;;;;;;;3.90;2.20;;;;;;;1.23;69.19;100313.71;129921;1260;114804;-66
2023/03/28 06:22:52;;;;;;;4.40;3.60;;;;;;;1.29;68.83;100323.85;129981;1260;114802;-68
2023/03/28 06:25:55;;;;;;;5.60;2.90;;;;;;;1.39;68.80;100328.84;129972;1259;114793;-67
2023/03/28 06:28:57;;;;;;;2.50;1.90;;;;;;;1.47;68.51;100331.04;129933;1272;114715;-67
2023/03/28 06:32:00;;;;;;;5.30;3.20;;;;;;;1.51;68.56;100338.02;130031;1267;115170;-68
2023/03/28 06:35:02;;;;;;;4.90;3.00;;;;;;;1.57;68.24;100344.30;129972;1277;128982;-67
2023/03/28 06:38:05;;;;;;;5.60;3.70;;;;;;;1.65;68.02;100351.07;130072;1259;114811;-68
2023/03/28 06:41:07;;;;;;;5.40;3.40;;;;;;;1.86;68.66;100353.45;129945;1259;114729;-66
2023/03/28 06:44:10;;;;;;;6.00;3.00;;;;;;;2.30;68.81;100359.55;129975;1260;114799;-66
2023/03/28 06:47:12;;;;;;;7.30;3.80;;;;;;;2.76;68.64;100362.19;129942;1260;114826;-66
2023/03/28 06:50:15;;;;;;;7.10;4.20;;;;;;;3.13;67.85;100372.15;129908;1259;114769;-63
2023/03/28 06:53:18;;;;;;;7.70;3.90;;;;;;;3.41;67.57;100371.63;129883;1259;114775;-67
2023/03/28 06:56:23;;;;;;;4.80;3.20;;;;;;;3.58;66.84;100384.37;130041;1259;114769;-66
2023/03/28 06:59:25;;;;;;;8.60;4.30;;;;;;;3.61;66.34;100385.39;129931;1278;115166;-68
2023/03/28 07:02:27;;;;;;;7.20;3.50;;;;;;;3.63;66.11;100386.06;130212;1277;114710;-66
2023/03/28 07:05:29;;;;;;;4.80;3.10;;;;;;;3.65;65.70;100393.77;130166;1254;114726;-67
2023/03/28 07:08:32;;;;;;;5.10;2.60;;;;;;;3.70;65.54;100398.64;129951;1277;114797;-65
2023/03/28 07:11:35;;;;;;;3.90;2.50;;;;;;;3.69;65.29;100400.95;129867;1278;114766;-67
2023/03/28 07:14:39;;;;;;;3.50;2.10;;;;;;;3.63;65.13;100404.23;129563;1278;114645;-66
2023/03/28 07:17:41;;;;;;;2.70;2.00;;;;;;;3.56;64.90;100413.55;129889;1277;115268;-66
2023/03/28 07:20:44;;;;;;;3.60;2.00;;;;;;;3.47;64.85;100413.90;129927;1272;114767;-66
2023/03/28 07:23:46;;;;;;;2.70;2.30;;;;;;;3.45;64.46;100419.77;130090;1258;115068;-66
2023/03/28 07:26:49;;;;;;;3.00;2.10;;;;;;;3.50;64.47;100418.97;130035;1259;115154;-66
2023/03/28 07:29:51;;;;;;;3.50;1.80;;;;;;;3.76;65.10;100423.23;129943;1259;114744;-65
2023/03/28 07:32:54;;;;;;;1.60;1.50;;;;;;;4.17;64.72;100431.24;129908;1259;114819;-66
2023/03/28 07:35:57;;;;;;;3.10;1.70;;;;;;;4.53;64.52;100432.61;129825;1260;114723;-66
2023/03/28 07:38:59;;;;;;;3.00;1.80;;;;;;;4.83;63.39;100436.53;130128;1258;114818;-66
2023/03/28 07:42:10;;;;;;;2.00;1.70;;;;;;;4.97;62.73;100439.19;129931;1260;114821;-66
2023/03/28 07:45:15;;;;;;;5.80;2.80;;;;;;;5.17;62.71;100448.46;129901;1259;114872;-67
2023/03/28 07:48:17;;;;;;;7.80;3.90;;;;;;;5.50;62.00;100448.48;129963;1260;114725;-66
2023/03/28 07:51:20;;;;;;;6.10;4.80;;;;;;;5.60;61.77;100450.90;130023;1257;114702;-66
2023/03/28 07:54:23;;;;;;;5.00;2.70;;;;;;;5.55;60.71;100456.33;130081;1261;114779;-67
2023/03/28 07:57:25;;;;;;;3.90;3.10;;;;;;;5.39;60.87;100463.67;129879;1262;115196;-67
2023/03/28 08:00:28;;;;;;;3.20;2.50;;;;;;;5.30;60.82;100470.60;130013;1259;115188;-66
2023/03/28 08:03:31;;;;;;;2.40;1.80;;;;;;;5.65;61.38;100472.53;130026;1260;114724;-67
2023/03/28 08:06:36;;;;;;;4.10;2.10;;;;;;;5.74;60.64;100470.34;129994;1260;114809;-68
2023/03/28 08:09:39;;;;;;;3.20;1.70;;;;;;;5.74;60.12;100479.05;130188;1260;127934;-67
2023/03/28 08:12:41;;;;;;;5.70;1.90;;;;;;;5.74;59.90;100482.41;129949;1259;115316;-66
2023/03/28 08:15:43;;;;;;;4.70;1.60;;;;;;;6.04;59.88;100485.17;129972;1259;114741;-67
2023/03/28 08:18:45;;;;;;;2.20;1.40;;;;;;;6.17;59.22;100483.92;130253;1259;114742;-67
2023/03/28 08:21:48;;;;;;;3.20;1.70;;;;;;;6.26;59.48;100484.73;129819;1258;116457;-67
2023/03/28 08:24:51;;;;;;;3.70;2.00;;;;;;;6.40;59.30;100481.51;129994;1260;114786;-67
2023/03/28 08:27:53;;;;;;;4.00;1.90;;;;;;;6.47;59.34;100483.59;129939;1260;115425;-67
2023/03/28 08:30:55;;;;;;;2.40;1.60;;;;;;;6.39;59.09;100488.98;129966;1254;115093;-67
2023/03/28 08:33:58;;;;;;;3.90;2.30;;;;;;;6.18;58.64;100494.02;129984;1276;115181;-67
2023/03/28 08:37:00;;;;;;;3.90;2.60;;;;;;;5.92;58.40;100494.35;129972;1260;114791;-67
2023/03/28 08:40:07;;;;;;;4.50;3.20;;;;;;;5.68;58.20;100496.38;129871;1266;114757;-66
2023/03/28 08:43:33;;;;;;;3.90;2.10;;;;;;;5.51;58.28;100497.88;129643;1260;114821;-66
2023/03/28 08:46:39;;;;;;;6.00;3.50;;;;;;;5.46;58.48;100496.25;129853;1263;129051;-66
2023/03/28 08:49:49;;;;;;;5.20;3.30;;;;;;;5.55;58.73;100497.98;129903;1260;116321;-67
2023/03/28 08:52:51;;;;;;;4.40;2.60;;;;;;;5.75;58.83;100492.65;129943;1270;114847;-67
2023/03/28 08:55:55;;;;;;;6.40;4.00;;;;;;;5.89;57.90;100495.30;129940;1259;114888;-67
2023/03/28 08:59:15;;;;;;;8.60;4.50;;;;;;;5.84;57.27;100500.58;129844;1268;114823;-67
2023/03/28 09:02:20;;;;;;;7.70;3.10;;;;;;;5.88;57.38;100501.71;129616;1256;127854;-67
2023/03/28 09:05:37;;;;;;;;;;;;;;;5.98;57.83;100502.34;129921;1267;114763;-67
2023/03/28 09:08:45;;;;;;;7.40;4.20;;;;;;;6.02;57.04;100499.25;129994;1262;114951;-65
2023/03/28 09:12:13;;;;;;;5.70;3.10;;;;;;;6.07;57.24;100502.48;130069;1260;114987;-67
2023/03/28 09:15:42;;;;;;;5.30;2.40;;;;;;;6.08;56.77;100505.81;130116;1277;114761;-67
2023/03/28 09:19:10;;;;;;;6.90;2.40;;;;;;;6.08;57.01;100519.10;129861;1275;128855;-67
2023/03/28 09:22:32;;;;;;;4.00;2.00;;;;;;;6.16;58.11;100522.46;129634;1278;115349;-67
2023/03/28 09:25:45;;;;;;;6.60;1.80;;;;;;;6.43;58.71;100529.65;129945;1254;114817;-67
2023/03/28 09:28:55;;;;;;;4.00;1.80;;;;;;;6.67;58.56;100536.06;129905;1260;114782;-67
2023/03/28 09:32:03;;;;;;;5.00;1.70;;;;;;;6.88;57.76;100535.80;130127;1259;114801;-67
2023/03/28 09:35:15;;;;;;;4.70;2.10;;;;;;;7.02;58.00;100562.35;129850;1267;129395;-67
2023/03/28 09:38:26;;;;;;;3.40;1.70;;;;;;;6.80;58.43;100578.29;129560;1278;116503;-66
2023/03/28 09:41:51;;;;;;;5.30;1.70;;;;;;;6.30;58.34;100589.63;129752;1276;114793;-67
2023/03/28 09:45:22;;;;;;;4.70;2.10;;;;;;;5.66;58.70;100593.36;129570;1278;114796;-66
2023/03/28 09:48:30;;;;;;;5.60;2.90;;;;;;;5.16;59.55;100586.38;129423;1265;114796;-66
2023/03/28 09:51:32;;;;;;;6.60;2.40;;;;;;;4.91;60.10;100583.58;129226;1267;127569;-66
2023/03/28 09:54:35;;;;;;;5.30;2.50;;;;;;;4.75;60.36;100585.70;129371;1266;114788;-66
2023/03/28 09:58:00;;;;;;;4.70;2.60;;;;;;;4.55;60.62;100590.50;129255;1266;115466;-66
2023/03/28 10:01:04;;;;;;;9.60;2.10;;;;;;;4.51;60.91;100583.33;129426;1267;116645;-67
2023/03/28 10:04:20;;;;;;;10.10;3.30;;;;;;;4.54;60.99;100583.45;129280;1268;114820;-65
2023/03/28 10:07:32;;;;;;;6.60;3.40;;;;;;;4.78;61.46;100583.31;129396;1284;128992;-65
2023/03/28 10:10:35;;;;;;;6.70;2.30;;;;;;;4.90;60.42;100594.05;129364;1276;114721;-68
2023/03/28 10:13:49;;;;;;;2.10;1.50;;;;;;;4.90;57.92;100600.06;129495;1264;114870;-66
2023/03/28 10:16:52;;;;;;;2.70;2.00;;;;;;;4.80;57.45;100602.02;129192;1272;115115;-66
2023/03/28 10:20:14;;;;;;;3.00;1.90;;;;;;;4.79;57.76;100604.34;129170;1270;115757;-66
2023/03/28 10:23:17;;;;;;;6.20;2.90;;;;;;;4.75;56.91;100607.27;129062;1269;127784;-65
2023/03/28 10:26:23;;;;;;;9.30;3.40;;;;;;;4.69;56.67;100600.67;129372;1279;114939;-67
2023/03/28 10:29:25;;;;;;;3.20;1.40;;;;;;;4.70;55.97;100601.88;129274;1266;114745;-66
2023/03/28 10:32:29;;;;;;;2.80;1.70;;;;;;;4.79;55.72;100600.48;129547;1262;114983;-66
2023/03/28 10:35:32;;;;;;;5.10;1.90;;;;;;;4.97;56.43;100606.08;129210;1277;648939;-65
2023/03/28 10:38:45;;;;;;;5.90;3.20;;;;;;;5.24;56.36;100601.96;129921;1260;127589;-66
2023/03/28 10:41:55;;;;;;;3.20;1.50;;;;;;;5.44;54.46;100613.55;129775;1277;115259;-66
2023/03/28 10:44:59;;;;;;;2.40;1.30;;;;;;;5.53;53.11;100613.02;130245;1267;114776;-67
2023/03/28 10:48:11;;;;;;;2.30;1.20;;;;;;;5.55;53.03;100615.61;130405;1260;114830;-67
2023/03/28 10:51:21;;;;;;;3.10;2.00;;;;;;;5.58;53.42;100614.64;130052;1276;114795;-68
2023/03/28 10:55:10;;;;;;;4.60;1.90;;;;;;;5.50;52.96;100622.45;129995;1257;128656;-67
2023/03/28 10:58:36;;;;;;;6.20;2.10;;;;;;;5.45;51.37;100624.34;130084;1276;115262;-67
2023/03/28 11:02:21;;;;;;;1.90;1.40;;;;;;;5.45;52.20;100628.23;130199;1276;114785;-66
2023/03/28 11:05:30;;;;;;;4.60;1.30;;;;;;;5.64;51.26;100625.84;129959;1267;114801;-66
2023/03/28 11:08:43;;;;;;;3.80;2.10;;;;;;;5.68;51.08;100619.71;130123;1276;114766;-66
2023/03/28 11:12:02;;;;;;;5.50;1.80;;;;;;;5.71;51.02;100630.64;130075;1257;129136;-66
2023/03/28 11:15:52;;;;;;;7.90;3.20;;;;;;;5.66;50.60;100639.80;129847;1270;115262;-66
2023/03/28 11:19:36;;;;;;;5.40;1.80;;;;;;;5.37;51.72;100657.64;130010;1265;114806;-66
2023/03/28 11:23:00;;;;;;;2.90;1.40;;;;;;;5.02;53.17;100673.27;129315;1267;114911;-67
2023/03/28 11:26:15;;;;;;;5.70;2.40;;;;;;;4.74;54.06;100675.75;129223;1270;114869;-67
2023/03/28 11:29:31;;;;;;;10.70;4.10;;;;;;;4.72;54.87;100682.70;129161;1285;127852;-67
2023/03/28 11:32:41;;;;;;;6.80;2.30;;;;;;;4.75;55.52;100683.70;129119;1264;115438;-67
2023/03/28 11:35:53;;;;;;;8.90;4.10;;;;;;;4.64;55.31;100679.66;129370;1264;114928;-67
2023/03/28 11:39:00;;;;;;;4.70;2.70;;;;;;;4.42;55.74;100679.55;129155;1277;114828;-67
2023/03/28 11:42:07;;;;;;;5.00;3.40;;;;;;;4.23;55.30;100677.40;129298;1282;115206;-64
2023/03/28 11:45:36;;;;;;;6.10;1.70;;;;;;;4.17;56.20;100675.38;129251;1285;128506;-66
2023/03/28 11:48:43;;;;;;;4.30;1.90;;;;;;;4.24;55.34;100675.06;129228;1284;115423;-67
2023/03/28 11:51:55;;;;;;;3.80;2.20;;;;;;;4.20;54.65;100707.67;129370;1267;114735;-66
2023/03/28 11:55:21;;;;;;;9.80;4.40;;;;;;;3.99;57.08;100732.76;129306;1265;114834;-66
2023/03/28 11:58:26;;;;;;;8.00;3.10;;;;;;;3.81;59.22;100733.73;129255;1284;114938;-66
2023/03/28 12:01:31;;;;;;;5.20;2.00;;;;;;;3.85;60.13;100731.20;129999;1275;130514;-65
2023/03/28 12:04:41;;;;;;;4.70;2.80;;;;;;;3.89;60.07;100720.36;129891;1259;114850;-65
2023/03/28 12:08:21;;;;;;;7.20;3.40;;;;;;;3.85;60.05;100715.83;130090;1258;114815;-66
2023/03/28 12:11:33;;;;;;;4.10;2.10;;;;;;;3.77;60.03;100706.58;130024;1258;115183;-66
2023/03/28 12:14:44;;;;;;;7.30;2.50;;;;;;;3.73;59.80;100704.16;129773;1276;115412;-66
2023/03/28 12:17:55;;;;;;;4.40;2.20;;;;;;;3.74;58.87;100701.50;129946;1276;129117;-66
2023/03/28 12:21:12;;;;;;;7.40;3.30;;;;;;;3.72;58.61;100696.24;129725;1276;115164;-67
2023/03/28 12:24:24;;;;;;;4.90;2.10;;;;;;;3.75;58.15;100697.41;129915;1259;114782;-66
2023/03/28 12:27:46;;;;;;;7.00;2.40;;;;;;;3.86;57.66;100699.02;130003;1257;114772;-66
2023/03/28 12:31:00;;;;;;;6.10;3.00;;;;;;;3.99;57.50;100692.81;130005;1267;114740;-66
2023/03/28 12:34:08;;;;;;;7.20;2.80;;;;;;;4.22;57.36;100698.11;130047;1276;129000;-66
2023/03/28 12:37:18;;;;;;;5.70;2.90;;;;;;;4.45;57.06;100692.39;129682;1254;115166;-66
2023/03/28 12:40:44;;;;;;;5.00;1.80;;;;;;;4.65;57.41;100699.81;129655;1263;115023;-67
2023/03/28 12:44:07;;;;;;;4.70;2.10;;;;;;;4.78;57.82;100709.85;129945;1259;114827;-66
2023/03/28 12:47:42;;;;;;;4.70;2.50;;;;;;;4.79;58.49;100714.26;129580;1274;114769;-66
2023/03/28 12:50:53;;;;;;;3.50;2.00;;;;;;;4.68;58.60;100719.22;129419;1260;129076;-67
2023/03/28 12:54:18;;;;;;;26.30;11.10;;;;;;;4.53;58.58;100729.92;129151;1270;115457;-67
2023/03/28 12:57:39;;;;;;;9.20;3.60;;;;;;;4.33;58.83;100721.24;128743;1272;114785;-71
2023/03/28 13:00:48;;;;;;;9.20;3.50;;;;;;;4.22;59.19;100724.96;128713;1267;115034;-66
2023/03/28 13:04:00;;;;;;;5.80;3.00;;;;;;;4.19;59.47;100723.42;129058;1273;114846;-67
2023/03/28 13:07:09;;;;;;;11.00;5.50;;;;;;;4.14;59.61;100713.27;128624;1274;128172;-66
2023/03/28 13:10:23;;;;;;;5.30;2.70;;;;;;;4.16;59.61;100712.52;129090;1268;114893;-69
2023/03/28 13:13:43;;;;;;;4.80;1.90;;;;;;;4.15;58.89;100724.55;128508;1267;114941;-69
2023/03/28 13:16:59;;;;;;;4.30;2.40;;;;;;;4.08;58.41;100738.29;128849;1288;114801;-69
2023/03/28 13:20:09;;;;;;;;;;;;;;;3.94;59.12;100749.62;128988;1267;114805;-68
2023/03/28 13:23:12;;;;;;;;;;;;;;;3.75;59.14;100747.59;128956;1267;128812;-69
2023/03/28 13:26:14;;;;;;;;;;;;;;;3.63;59.36;100753.77;129122;1285;114893;-69
2023/03/28 13:29:16;;;;;;;;;;;;;;;3.59;59.64;100755.23;129293;1267;114935;-70
2023/03/28 13:32:21;;;;;;;;;;;;;;;3.51;60.02;100750.58;129162;1285;114862;-69
2023/03/28 13:35:34;;;;;;;;;;;;;;;3.44;60.63;100745.73;129715;1261;114689;-68
2023/03/28 13:38:54;;;;;;;;;;;;;;;3.39;60.59;100740.48;130016;1278;114820;-69
2023/03/28 13:41:57;;;;;;;;;;;;;;;3.28;59.85;100739.02;130042;1254;127919;-69
2023/03/28 13:45:05;;;;;;;;;;;;;;;3.24;59.81;100738.90;129883;1260;114769;-69
2023/03/28 13:48:07;;;;;;;;;;;;;;;3.27;60.20;100738.17;129697;1260;114798;-68
2023/03/28 13:51:10;;;;;;;;;;;;;;;3.33;60.54;100736.50;129881;1259;114773;-69
2023/03/28 13:54:12;;;;;;;;;;;;;;;3.38;60.19;100737.86;130390;1277;114926;-70
2023/03/28 13:57:15;;;;;;;;;;;;;;;3.40;60.12;100741.17;130073;1254;114738;-70
2023/03/28 14:00:19;;;;;;;;;;;;;;;3.43;59.67;100739.91;129825;1278;127937;-70
2023/03/28 14:03:21;;;;;;;;;;;;;;;3.48;59.61;100736.30;129964;1257;114742;-71
2023/03/28 14:06:24;;;;;;;;;;;;;;;3.59;59.61;100742.70;130167;1254;114715;-70
2023/03/28 14:09:29;;;;;;;;;;;;;;;3.75;59.73;100744.60;130199;1254;114776;-71
2023/03/28 14:12:31;;;;;;;;;;;;;;;3.96;59.77;100742.17;130258;1276;114842;-70
2023/03/28 14:15:34;;;;;;;;;;;;;;;4.19;59.37;100747.30;130242;1257;114664;-71
2023/03/28 14:18:39;;;;;;;;;;;;;;;4.41;58.71;100745.52;130296;1258;114804;-68
2023/03/28 14:21:41;;;;;;;;;;;;;;;4.58;58.19;100742.95;129917;1260;115202;-71
2023/03/28 14:24:44;;;;;;;;;;;;;;;4.66;57.10;100745.98;130450;1257;114815;-70
2023/03/28 14:27:53;;;;;;;;;;;;;;;4.74;56.76;100748.48;130349;1257;114753;-71
2023/03/28 14:30:55;;;;;;;;;;;;;;;4.80;56.00;100749.79;130266;1257;128549;-72